createdAt,value
2018-05-25T00:00:36.346Z,16.35
2018-05-25T00:03:03.850Z,16.34
2018-05-25T00:05:32.245Z,16.35
2018-05-25T00:07:59.742Z,16.34
2018-05-25T00:10:27.224Z,16.30
2018-05-25T00:12:54.783Z,16.35
2018-05-25T00:15:22.262Z,16.34
2018-05-25T00:17:49.742Z,16.38
2018-05-25T00:20:17.260Z,16.26
2018-05-25T00:22:44.740Z,16.23
2018-05-25T00:25:12.242Z,16.25
2018-05-25T00:27:39.716Z,16.30
2018-05-25T00:30:07.210Z,16.36
2018-05-25T00:32:34.690Z,16.34
2018-05-25T00:35:02.182Z,16.21
2018-05-25T00:37:29.655Z,16.06
2018-05-25T00:39:57.146Z,15.98
2018-05-25T00:42:24.614Z,15.91
2018-05-25T00:44:52.118Z,15.86
2018-05-25T00:47:19.594Z,15.88
2018-05-25T00:49:47.111Z,15.87
2018-05-25T00:52:14.587Z,15.80
2018-05-25T00:57:35.319Z,15.72
2018-05-25T01:00:02.823Z,15.77
2018-05-25T01:02:30.293Z,15.74
2018-05-25T01:04:57.833Z,15.74
2018-05-25T01:07:25.330Z,15.72
2018-05-25T01:09:52.793Z,15.71
2018-05-25T01:12:20.281Z,15.72
2018-05-25T01:14:47.759Z,15.71
2018-05-25T01:17:15.257Z,15.72
2018-05-25T01:19:42.734Z,15.71
2018-05-25T01:22:10.230Z,15.69
2018-05-25T01:24:37.713Z,15.67
2018-05-25T01:27:05.211Z,15.67
2018-05-25T01:29:32.685Z,15.67
2018-05-25T01:32:00.174Z,15.68
2018-05-25T01:34:27.646Z,15.62
2018-05-25T01:36:55.123Z,15.59
2018-05-25T01:39:22.626Z,15.60
2018-05-25T01:41:50.114Z,15.58
2018-05-25T01:44:17.609Z,15.53
2018-05-25T01:46:45.094Z,15.53
2018-05-25T01:49:12.582Z,15.51
2018-05-25T01:51:40.069Z,15.48
2018-05-25T01:54:07.562Z,15.44
2018-05-25T01:56:35.046Z,15.41
2018-05-25T01:59:03.174Z,15.32
2018-05-25T02:01:30.714Z,15.33
2018-05-25T02:03:58.224Z,15.25
2018-05-25T02:06:25.699Z,15.23
2018-05-25T02:08:53.188Z,15.25
2018-05-25T02:11:20.687Z,15.24
2018-05-25T02:13:48.162Z,15.18
2018-05-25T02:16:15.670Z,15.14
2018-05-25T02:18:43.669Z,15.11
2018-05-25T02:21:11.162Z,15.18
2018-05-25T02:23:38.644Z,15.22
2018-05-25T02:26:07.086Z,15.21
2018-05-25T02:28:34.579Z,15.21
2018-05-25T02:31:02.082Z,15.22
2018-05-25T02:33:29.559Z,15.22
2018-05-25T02:35:57.070Z,15.13
2018-05-25T02:38:24.549Z,15.08
2018-05-25T02:40:52.030Z,15.08
2018-05-25T02:43:19.520Z,15.05
2018-05-25T02:45:46.999Z,15.04
2018-05-25T02:48:14.533Z,15.02
2018-05-25T02:50:41.994Z,14.99
2018-05-25T02:53:09.486Z,14.93
2018-05-25T02:55:36.962Z,14.89
2018-05-25T02:58:04.449Z,14.83
2018-05-25T03:00:31.927Z,14.74
2018-05-25T03:02:59.486Z,14.62
2018-05-25T03:05:26.958Z,14.58
2018-05-25T03:07:54.463Z,14.58
2018-05-25T03:10:21.938Z,14.53
2018-05-25T03:12:49.418Z,14.53
2018-05-25T03:15:16.905Z,14.51
2018-05-25T03:17:44.382Z,14.53
2018-05-25T03:20:11.904Z,14.56
2018-05-25T03:22:39.378Z,14.57
2018-05-25T03:25:06.975Z,14.63
2018-05-25T03:27:34.445Z,14.64
2018-05-25T03:30:01.930Z,14.65
2018-05-25T03:32:29.418Z,14.67
2018-05-25T03:34:56.910Z,14.69
2018-05-25T03:37:24.381Z,14.73
2018-05-25T03:40:09.641Z,14.72
2018-05-25T03:42:37.118Z,14.71
2018-05-25T03:45:04.665Z,14.73
2018-05-25T03:47:32.166Z,14.74
2018-05-25T03:49:59.663Z,14.74
2018-05-25T03:52:27.146Z,14.74
2018-05-25T03:54:54.637Z,14.77
2018-05-25T03:57:22.109Z,14.75
2018-05-25T04:00:01.351Z,14.80
2018-05-25T04:02:28.830Z,14.78
2018-05-25T04:04:56.314Z,14.66
2018-05-25T04:07:23.813Z,14.56
2018-05-25T04:09:51.286Z,14.48
2018-05-25T04:12:18.778Z,14.56
2018-05-25T04:14:46.254Z,14.65
2018-05-25T04:17:13.745Z,14.64
2018-05-25T04:19:41.218Z,14.61
2018-05-25T04:22:08.706Z,14.76
2018-05-25T04:24:36.182Z,14.87
2018-05-25T04:27:03.677Z,15.03
2018-05-25T04:29:31.150Z,15.18
2018-05-25T04:31:58.641Z,15.37
2018-05-25T04:34:26.125Z,15.59
2018-05-25T04:36:53.621Z,15.77
2018-05-25T04:39:21.094Z,16.02
2018-05-25T04:41:48.593Z,16.22
2018-05-25T04:44:16.070Z,16.39
2018-05-25T04:46:44.527Z,16.46
2018-05-25T04:49:12.003Z,16.54
2018-05-25T04:51:39.490Z,16.72
2018-05-25T04:54:06.966Z,16.63
2018-05-25T04:56:34.462Z,16.72
2018-05-25T04:59:01.953Z,16.81
2018-05-25T05:01:29.453Z,16.87
2018-05-25T05:03:56.925Z,16.94
2018-05-25T05:06:24.430Z,16.99
2018-05-25T05:08:52.134Z,17.08
2018-05-25T05:11:19.849Z,17.20
2018-05-25T05:13:47.359Z,17.26
2018-05-25T05:16:14.865Z,17.36
2018-05-25T05:18:42.337Z,17.33
2018-05-25T05:21:10.170Z,17.31
2018-05-25T05:23:37.647Z,17.45
2018-05-25T05:26:05.159Z,17.53
2018-05-25T05:28:32.678Z,17.53
2018-05-25T05:31:00.149Z,17.47
2018-05-25T05:33:27.647Z,17.58
2018-05-25T05:35:55.126Z,17.92
2018-05-25T05:38:22.622Z,18.14
2018-05-25T05:40:50.111Z,17.99
2018-05-25T05:43:17.619Z,18.29
2018-05-25T05:46:07.330Z,18.34
2018-05-25T05:48:34.830Z,18.03
2018-05-25T05:51:02.309Z,18.37
2018-05-25T05:53:29.813Z,18.28
2018-05-25T05:55:57.294Z,18.30
2018-05-25T05:58:24.786Z,18.27
2018-05-25T06:00:53.008Z,18.62
2018-05-25T06:03:20.504Z,18.97
2018-05-25T06:05:48.072Z,19.17
2018-05-25T06:08:15.574Z,19.08
2018-05-25T06:10:43.058Z,19.23
2018-05-25T06:13:10.561Z,19.32
2018-05-25T06:15:38.099Z,19.53
2018-05-25T06:18:05.637Z,19.50
2018-05-25T06:20:33.116Z,19.71
2018-05-25T06:23:00.627Z,19.91
2018-05-25T06:25:28.152Z,20.17
2018-05-25T06:27:55.624Z,19.85
2018-05-25T06:30:23.089Z,19.80
2018-05-25T06:32:50.585Z,19.99
2018-05-25T06:35:18.055Z,20.04
2018-05-25T06:37:45.565Z,19.97
2018-05-25T06:40:13.041Z,20.07
2018-05-25T06:42:40.535Z,20.13
2018-05-25T06:45:08.016Z,20.07
2018-05-25T06:47:35.514Z,20.44
2018-05-25T06:50:02.997Z,20.68
2018-05-25T06:52:30.504Z,20.86
2018-05-25T06:54:57.977Z,21.01
2018-05-25T06:57:26.308Z,21.09
2018-05-25T06:59:53.920Z,21.14
2018-05-25T07:02:21.398Z,21.18
2018-05-25T07:04:48.885Z,21.21
2018-05-25T07:07:16.366Z,21.40
2018-05-25T07:09:43.862Z,21.53
2018-05-25T07:12:11.334Z,21.41
2018-05-25T07:14:38.836Z,21.69
2018-05-25T07:17:06.334Z,21.90
2018-05-25T07:19:33.832Z,21.90
2018-05-25T07:22:01.298Z,21.64
2018-05-25T07:24:28.792Z,21.52
2018-05-25T07:26:56.265Z,21.42
2018-05-25T07:29:23.754Z,21.50
2018-05-25T07:32:05.774Z,21.64
2018-05-25T07:34:33.284Z,22.14
2018-05-25T07:37:00.765Z,22.56
2018-05-25T07:39:28.263Z,22.72
2018-05-25T07:41:55.737Z,22.33
2018-05-25T07:44:23.237Z,22.32
2018-05-25T07:46:50.714Z,21.92
2018-05-25T07:49:18.301Z,22.51
2018-05-25T07:51:45.769Z,22.70
2018-05-25T07:54:13.265Z,21.78
2018-05-25T07:56:40.742Z,22.14
2018-05-25T07:59:08.240Z,22.63
2018-05-25T08:01:35.725Z,22.98
2018-05-25T08:04:03.218Z,23.10
2018-05-25T08:06:30.690Z,22.79
2018-05-25T08:08:58.198Z,23.12
2018-05-25T08:11:25.683Z,23.28
2018-05-25T08:13:53.176Z,23.55
2018-05-25T08:16:20.641Z,23.55
2018-05-25T08:18:48.138Z,23.50
2018-05-25T08:21:15.723Z,23.14
2018-05-25T08:23:43.295Z,23.38
2018-05-25T08:29:04.153Z,23.78
2018-05-25T08:31:31.640Z,24.01
2018-05-25T08:33:59.142Z,24.07
2018-05-25T08:36:26.614Z,24.23
2018-05-25T08:38:54.087Z,23.95
2018-05-25T08:41:21.574Z,23.72
2018-05-25T08:43:49.038Z,23.67
2018-05-25T08:46:16.530Z,24.02
2018-05-25T08:48:43.995Z,24.16
2018-05-25T08:51:11.539Z,24.12
2018-05-25T08:53:38.954Z,24.24
2018-05-25T08:56:06.443Z,24.42
2018-05-25T08:58:33.916Z,24.45
2018-05-25T09:01:01.428Z,24.56
2018-05-25T09:03:28.882Z,24.30
2018-05-25T09:05:56.362Z,24.51
2018-05-25T09:08:23.826Z,24.20
2018-05-25T09:10:51.357Z,23.65
2018-05-25T09:13:18.797Z,23.73
2018-05-25T09:15:46.282Z,24.02
2018-05-25T09:18:13.758Z,24.24
2018-05-25T09:20:41.253Z,23.51
2018-05-25T09:23:08.713Z,23.86
2018-05-25T09:25:36.198Z,24.11
2018-05-25T09:28:03.657Z,24.46
2018-05-25T09:30:31.137Z,24.29
2018-05-25T09:32:58.606Z,23.84
2018-05-25T09:35:26.101Z,24.21
2018-05-25T09:37:53.558Z,24.27
2018-05-25T09:40:21.042Z,24.17
2018-05-25T09:42:48.505Z,24.11
2018-05-25T09:45:15.989Z,24.50
2018-05-25T09:47:43.451Z,24.73
2018-05-25T09:50:10.942Z,25.14
2018-05-25T09:52:38.410Z,24.98
2018-05-25T09:55:05.907Z,24.98
2018-05-25T09:57:33.369Z,24.57
2018-05-25T10:00:00.836Z,24.24
2018-05-25T10:02:28.313Z,24.91
2018-05-25T10:04:55.773Z,24.90
2018-05-25T10:07:23.266Z,24.88
2018-05-25T10:09:50.746Z,25.05
2018-05-25T10:12:18.245Z,24.30
2018-05-25T10:14:45.705Z,24.02
2018-05-25T10:17:13.204Z,24.22
2018-05-25T10:19:40.666Z,24.92
2018-05-25T10:22:08.150Z,25.22
2018-05-25T10:24:35.624Z,25.48
2018-05-25T10:27:03.123Z,25.54
2018-05-25T10:29:30.603Z,25.96
2018-05-25T10:31:58.087Z,26.25
2018-05-25T10:34:25.551Z,26.35
2018-05-25T10:36:53.034Z,26.58
2018-05-25T10:39:20.497Z,26.74
2018-05-25T10:41:48.009Z,26.77
2018-05-25T10:44:15.471Z,26.41
2018-05-25T10:46:42.959Z,26.61
2018-05-25T10:49:10.448Z,26.77
2018-05-25T10:51:37.938Z,27.20
2018-05-25T10:54:05.419Z,27.12
2018-05-25T10:56:32.910Z,27.17
2018-05-25T10:59:00.378Z,26.78
2018-05-25T11:01:35.153Z,26.72
2018-05-25T11:04:02.617Z,27.20
2018-05-25T11:06:30.097Z,26.97
2018-05-25T11:08:57.570Z,27.36
2018-05-25T11:11:25.049Z,27.53
2018-05-25T11:13:52.528Z,27.05
2018-05-25T11:16:20.017Z,27.45
2018-05-25T11:18:47.477Z,27.55
2018-05-25T11:21:14.965Z,27.54
2018-05-25T11:23:42.443Z,27.97
2018-05-25T11:26:09.913Z,27.42
2018-05-25T11:28:37.402Z,27.67
2018-05-25T11:31:04.866Z,28.02
2018-05-25T11:33:32.350Z,28.29
2018-05-25T11:35:59.820Z,27.77
2018-05-25T11:38:27.314Z,27.50
2018-05-25T11:40:54.783Z,27.11
2018-05-25T11:43:22.282Z,27.19
2018-05-25T11:45:49.758Z,27.66
2018-05-25T11:48:24.929Z,28.14
2018-05-25T11:50:52.398Z,28.08
2018-05-25T11:53:19.877Z,28.21
2018-05-25T11:55:47.347Z,28.47
2018-05-25T11:58:14.849Z,28.08
2018-05-25T12:00:42.322Z,28.57
2018-05-25T12:03:09.806Z,28.68
2018-05-25T12:05:37.281Z,28.50
2018-05-25T12:08:04.778Z,28.69
2018-05-25T12:10:32.241Z,28.66
2018-05-25T12:12:59.725Z,28.58
2018-05-25T12:15:27.216Z,28.56
2018-05-25T12:17:54.710Z,28.91
2018-05-25T12:20:22.179Z,28.97
2018-05-25T12:22:49.664Z,29.28
2018-05-25T12:25:17.139Z,28.53
2018-05-25T12:27:44.634Z,27.97
2018-05-25T12:30:12.129Z,28.38
2018-05-25T12:32:39.630Z,29.11
2018-05-25T12:35:07.098Z,29.41
2018-05-25T12:37:34.593Z,29.35
